sensor_id;sensor_type;location;lat;lon;timestamp;pressure;altitude;pressure_sealevel;temperature;humidity
44001;BME280;29660;42.892;24.710;2023-12-28T00:02:15;98134.47;;;1.53;100.00
44001;BME280;29660;42.892;24.710;2023-12-28T00:07:38;98140.34;;;1.42;100.00
44001;BME280;29660;42.892;24.710;2023-12-28T00:13:00;98143.78;;;1.42;100.00
44001;BME280;29660;42.892;24.710;2023-12-28T00:18:22;98142.34;;;1.27;100.00
44001;BME280;29660;42.892;24.710;2023-12-28T00:23:44;98151.84;;;1.34;100.00
44001;BME280;29660;42.892;24.710;2023-12-28T00:29:06;98142.16;;;1.35;100.00
44001;BME280;29660;42.892;24.710;2023-12-28T00:34:28;98145.59;;;1.42;100.00
44001;BME280;29660;42.892;24.710;2023-12-28T00:39:51;98144.16;;;1.39;100.00
44001;BME280;29660;42.892;24.710;2023-12-28T00:45:13;98144.78;;;1.35;100.00
44001;BME280;29660;42.892;24.710;2023-12-28T00:50:35;98000.88;;;0.36;100.00
44001;BME280;29660;42.892;24.710;2023-12-28T00:55:57;98147.53;;;1.13;100.00
44001;BME280;29660;42.892;24.710;2023-12-28T01:01:19;98132.13;;;0.97;100.00
44001;BME280;29660;42.892;24.710;2023-12-28T01:06:42;98155.41;;;1.13;100.00
44001;BME280;29660;42.892;24.710;2023-12-28T01:12:04;98141.88;;;1.03;100.00
44001;BME280;29660;42.892;24.710;2023-12-28T01:17:27;98143.75;;;1.22;100.00
44001;BME280;29660;42.892;24.710;2023-12-28T01:22:49;98156.84;;;1.16;100.00
44001;BME280;29660;42.892;24.710;2023-12-28T01:28:12;98075.25;;;0.56;100.00
44001;BME280;29660;42.892;24.710;2023-12-28T01:33:34;98129.41;;;0.70;100.00
44001;BME280;29660;42.892;24.710;2023-12-28T01:38:59;98162.03;;;0.96;100.00
44001;BME280;29660;42.892;24.710;2023-12-28T01:44:21;98034.66;;;0.11;100.00
44001;BME280;29660;42.892;24.710;2023-12-28T01:49:43;98145.94;;;0.64;100.00
44001;BME280;29660;42.892;24.710;2023-12-28T01:55:07;98125.50;;;0.53;100.00
44001;BME280;29660;42.892;24.710;2023-12-28T02:00:30;98160.97;;;0.84;100.00
44001;BME280;29660;42.892;24.710;2023-12-28T02:05:54;98153.50;;;0.81;100.00
44001;BME280;29660;42.892;24.710;2023-12-28T02:11:18;98146.38;;;0.74;100.00
44001;BME280;29660;42.892;24.710;2023-12-28T02:16:52;98054.41;;;0.07;100.00
44001;BME280;29660;42.892;24.710;2023-12-28T02:22:15;98155.06;;;0.68;100.00
44001;BME280;29660;42.892;24.710;2023-12-28T02:27:46;98133.25;;;0.68;100.00
44001;BME280;29660;42.892;24.710;2023-12-28T02:38:50;98102.56;;;0.75;100.00
44001;BME280;29660;42.892;24.710;2023-12-28T02:44:13;97926.50;;;-0.39;100.00
44001;BME280;29660;42.892;24.710;2023-12-28T02:49:36;98105.97;;;0.69;100.00
44001;BME280;29660;42.892;24.710;2023-12-28T02:54:58;98083.75;;;0.65;100.00
44001;BME280;29660;42.892;24.710;2023-12-28T03:00:20;98046.25;;;0.30;100.00
44001;BME280;29660;42.892;24.710;2023-12-28T03:05:43;98055.41;;;0.47;100.00
44001;BME280;29660;42.892;24.710;2023-12-28T03:11:05;98011.47;;;0.14;100.00
44001;BME280;29660;42.892;24.710;2023-12-28T03:16:27;98002.16;;;-0.30;100.00
44001;BME280;29660;42.892;24.710;2023-12-28T03:21:49;97949.91;;;-0.38;100.00
44001;BME280;29660;42.892;24.710;2023-12-28T03:27:13;98042.59;;;0.24;100.00
44001;BME280;29660;42.892;24.710;2023-12-28T03:32:35;97943.44;;;-0.42;100.00
44001;BME280;29660;42.892;24.710;2023-12-28T03:37:58;97926.38;;;-0.59;100.00
44001;BME280;29660;42.892;24.710;2023-12-28T03:43:20;97967.78;;;-0.48;100.00
44001;BME280;29660;42.892;24.710;2023-12-28T03:48:42;98054.41;;;0.07;100.00
44001;BME280;29660;42.892;24.710;2023-12-28T03:54:04;98102.38;;;0.29;100.00
44001;BME280;29660;42.892;24.710;2023-12-28T03:59:27;98103.97;;;0.30;100.00
44001;BME280;29660;42.892;24.710;2023-12-28T04:04:49;98051.66;;;-0.13;100.00
44001;BME280;29660;42.892;24.710;2023-12-28T04:10:11;98103.38;;;0.28;100.00
44001;BME280;29660;42.892;24.710;2023-12-28T04:15:33;98110.38;;;0.20;100.00
44001;BME280;29660;42.892;24.710;2023-12-28T04:20:55;98121.91;;;0.26;100.00
44001;BME280;29660;42.892;24.710;2023-12-28T04:26:18;98128.81;;;0.34;100.00
44001;BME280;29660;42.892;24.710;2023-12-28T04:31:42;98132.09;;;0.42;100.00
44001;BME280;29660;42.892;24.710;2023-12-28T04:37:04;98135.94;;;0.40;100.00
44001;BME280;29660;42.892;24.710;2023-12-28T04:42:26;98069.72;;;0.03;100.00
44001;BME280;29660;42.892;24.710;2023-12-28T04:47:48;98131.13;;;0.50;100.00
44001;BME280;29660;42.892;24.710;2023-12-28T04:53:11;98128.34;;;0.58;100.00
44001;BME280;29660;42.892;24.710;2023-12-28T04:58:33;97970.88;;;-0.38;100.00
44001;BME280;29660;42.892;24.710;2023-12-28T05:03:55;98117.78;;;0.45;100.00
44001;BME280;29660;42.892;24.710;2023-12-28T05:09:17;97580.25;;;-2.91;100.00
44001;BME280;29660;42.892;24.710;2023-12-28T05:14:39;98118.25;;;0.55;100.00
44001;BME280;29660;42.892;24.710;2023-12-28T05:20:01;98111.75;;;0.51;100.00
44001;BME280;29660;42.892;24.710;2023-12-28T05:25:24;97999.16;;;-0.27;100.00
44001;BME280;29660;42.892;24.710;2023-12-28T05:30:46;97995.97;;;-0.22;100.00
44001;BME280;29660;42.892;24.710;2023-12-28T05:36:08;98090.47;;;0.33;100.00
44001;BME280;29660;42.892;24.710;2023-12-28T05:41:50;98110.03;;;0.30;100.00
44001;BME280;29660;42.892;24.710;2023-12-28T05:47:12;98088.28;;;0.02;100.00
44001;BME280;29660;42.892;24.710;2023-12-28T05:52:35;97776.53;;;-2.08;100.00
44001;BME280;29660;42.892;24.710;2023-12-28T05:57:57;98035.66;;;-0.53;100.00
44001;BME280;29660;42.892;24.710;2023-12-28T06:03:19;97964.72;;;-0.86;100.00
44001;BME280;29660;42.892;24.710;2023-12-28T06:08:42;97534.63;;;-3.59;100.00
44001;BME280;29660;42.892;24.710;2023-12-28T06:14:04;98102.25;;;0.15;100.00
44001;BME280;29660;42.892;24.710;2023-12-28T06:19:27;98003.22;;;-0.52;100.00
44001;BME280;29660;42.892;24.710;2023-12-28T06:24:49;97971.47;;;-0.70;100.00
44001;BME280;29660;42.892;24.710;2023-12-28T06:30:12;98106.22;;;0.33;100.00
44001;BME280;29660;42.892;24.710;2023-12-28T06:35:34;98087.44;;;0.29;100.00
44001;BME280;29660;42.892;24.710;2023-12-28T06:40:59;98102.88;;;0.52;100.00
44001;BME280;29660;42.892;24.710;2023-12-28T06:46:21;98104.97;;;0.63;100.00
44001;BME280;29660;42.892;24.710;2023-12-28T08:45:01;98013.31;;;5.41;92.19
44001;BME280;29660;42.892;24.710;2023-12-28T08:50:24;97973.88;;;5.87;92.66
44001;BME280;29660;42.892;24.710;2023-12-28T08:55:46;97986.72;;;6.59;87.93
44001;BME280;29660;42.892;24.710;2023-12-28T09:01:08;97978.41;;;7.12;83.32
44001;BME280;29660;42.892;24.710;2023-12-28T09:06:30;97951.00;;;7.41;77.18
44001;BME280;29660;42.892;24.710;2023-12-28T09:11:53;97962.69;;;8.00;70.52
44001;BME280;29660;42.892;24.710;2023-12-28T09:17:15;97675.31;;;6.56;65.18
44001;BME280;29660;42.892;24.710;2023-12-28T09:22:37;97939.63;;;8.72;60.19
44001;BME280;29660;42.892;24.710;2023-12-28T09:27:59;97930.84;;;9.03;56.45
44001;BME280;29660;42.892;24.710;2023-12-28T09:33:22;97915.13;;;9.34;50.99
44001;BME280;29660;42.892;24.710;2023-12-28T09:38:44;97881.66;;;9.43;51.92
44001;BME280;29660;42.892;24.710;2023-12-28T09:44:11;97885.03;;;9.81;52.16
44001;BME280;29660;42.892;24.710;2023-12-28T09:49:35;97879.59;;;10.18;48.67
44001;BME280;29660;42.892;24.710;2023-12-28T09:54:58;97867.94;;;10.45;48.08
44001;BME280;29660;42.892;24.710;2023-12-28T10:00:21;97858.13;;;10.66;48.26
44001;BME280;29660;42.892;24.710;2023-12-28T10:05:45;97845.28;;;10.88;46.31
44001;BME280;29660;42.892;24.710;2023-12-28T10:11:08;97859.72;;;11.13;45.33
44001;BME280;29660;42.892;24.710;2023-12-28T10:16:30;97822.00;;;11.35;45.70
44001;BME280;29660;42.892;24.710;2023-12-28T10:21:52;97472.19;;;9.45;43.98
44001;BME280;29660;42.892;24.710;2023-12-28T10:27:14;97798.59;;;11.91;41.88
44001;BME280;29660;42.892;24.710;2023-12-28T10:32:40;97763.75;;;12.07;43.54
44001;BME280;29660;42.892;24.710;2023-12-28T10:38:02;97773.63;;;12.45;41.92
44001;BME280;29660;42.892;24.710;2023-12-28T10:43:26;97772.34;;;12.72;40.73
44001;BME280;29660;42.892;24.710;2023-12-28T10:48:50;97770.25;;;12.98;40.53
44001;BME280;29660;42.892;24.710;2023-12-28T10:54:39;97749.31;;;13.29;37.26
44001;BME280;29660;42.892;24.710;2023-12-28T11:00:20;97737.94;;;13.61;37.15
44001;BME280;29660;42.892;24.710;2023-12-28T11:05:45;97734.19;;;13.81;37.65
44001;BME280;29660;42.892;24.710;2023-12-28T11:11:08;97731.50;;;14.00;38.59
44001;BME280;29660;42.892;24.710;2023-12-28T11:16:32;97721.06;;;14.17;37.68
44001;BME280;29660;42.892;24.710;2023-12-28T11:21:55;97687.91;;;14.27;35.21
44001;BME280;29660;42.892;24.710;2023-12-28T11:27:19;97617.88;;;13.96;36.77
44001;BME280;29660;42.892;24.710;2023-12-28T11:32:42;97709.53;;;14.82;36.59
44001;BME280;29660;42.892;24.710;2023-12-28T11:38:09;97695.22;;;15.14;34.79
44001;BME280;29660;42.892;24.710;2023-12-28T11:43:35;97687.34;;;15.32;35.46
44001;BME280;29660;42.892;24.710;2023-12-28T11:49:07;97574.88;;;14.75;34.08
44001;BME280;29660;42.892;24.710;2023-12-28T11:54:30;97679.97;;;15.51;31.68
44001;BME280;29660;42.892;24.710;2023-12-28T11:59:55;97448.44;;;14.08;30.82
44001;BME280;29660;42.892;24.710;2023-12-28T12:05:18;97678.16;;;15.60;31.61
44001;BME280;29660;42.892;24.710;2023-12-28T12:10:40;97596.31;;;15.16;33.01
44001;BME280;29660;42.892;24.710;2023-12-28T12:16:03;97643.63;;;15.54;32.98
44001;BME280;29660;42.892;24.710;2023-12-28T12:21:28;97657.75;;;15.73;32.88
44001;BME280;29660;42.892;24.710;2023-12-28T12:26:51;97645.56;;;15.76;31.60
44001;BME280;29660;42.892;24.710;2023-12-28T12:32:14;97651.63;;;15.81;32.44
44001;BME280;29660;42.892;24.710;2023-12-28T12:37:36;97637.81;;;15.74;31.55
44001;BME280;29660;42.892;24.710;2023-12-28T12:42:59;97576.09;;;15.33;32.29
44001;BME280;29660;42.892;24.710;2023-12-28T12:48:22;97641.41;;;15.69;32.13
44001;BME280;29660;42.892;24.710;2023-12-28T12:53:44;97639.63;;;15.65;31.19
44001;BME280;29660;42.892;24.710;2023-12-28T12:59:06;97642.59;;;15.63;31.86
44001;BME280;29660;42.892;24.710;2023-12-28T13:04:29;97614.66;;;15.51;31.23
44001;BME280;29660;42.892;24.710;2023-12-28T13:09:51;97456.25;;;14.45;32.08
44001;BME280;29660;42.892;24.710;2023-12-28T13:15:13;97645.59;;;15.62;32.21
44001;BME280;29660;42.892;24.710;2023-12-28T13:20:36;97646.00;;;15.55;31.96
44001;BME280;29660;42.892;24.710;2023-12-28T13:25:58;97543.13;;;14.77;32.91
44001;BME280;29660;42.892;24.710;2023-12-28T13:31:20;97639.69;;;15.37;32.22
44001;BME280;29660;42.892;24.710;2023-12-28T13:36:42;97646.84;;;15.28;33.18
44001;BME280;29660;42.892;24.710;2023-12-28T13:42:06;97638.94;;;15.09;32.16
44001;BME280;29660;42.892;24.710;2023-12-28T13:47:29;97639.22;;;15.08;32.26
44001;BME280;29660;42.892;24.710;2023-12-28T13:52:51;97656.03;;;14.86;35.11
44001;BME280;29660;42.892;24.710;2023-12-28T13:58:13;97590.66;;;14.03;38.89
44001;BME280;29660;42.892;24.710;2023-12-28T14:03:35;97663.25;;;13.92;40.44
44001;BME280;29660;42.892;24.710;2023-12-28T14:08:57;97671.66;;;13.48;41.80
44001;BME280;29660;42.892;24.710;2023-12-28T14:14:19;97678.28;;;13.08;42.37
44001;BME280;29660;42.892;24.710;2023-12-28T14:19:42;97569.19;;;11.98;43.25
44001;BME280;29660;42.892;24.710;2023-12-28T14:25:05;97670.56;;;12.24;45.62
44001;BME280;29660;42.892;24.710;2023-12-28T14:30:28;97666.84;;;11.80;45.79
44001;BME280;29660;42.892;24.710;2023-12-28T14:35:50;97652.34;;;11.47;46.96
44001;BME280;29660;42.892;24.710;2023-12-28T14:41:12;97626.44;;;10.98;47.96
44001;BME280;29660;42.892;24.710;2023-12-28T14:46:34;97618.03;;;10.61;49.76
44001;BME280;29660;42.892;24.710;2023-12-28T14:51:57;97647.69;;;10.39;51.13
44001;BME280;29660;42.892;24.710;2023-12-28T14:57:20;97646.88;;;9.97;52.62
44001;BME280;29660;42.892;24.710;2023-12-28T15:02:42;97600.78;;;9.41;54.76
44001;BME280;29660;42.892;24.710;2023-12-28T15:08:04;97662.81;;;9.46;57.15
44001;BME280;29660;42.892;24.710;2023-12-28T15:13:28;97677.06;;;9.15;59.37
44001;BME280;29660;42.892;24.710;2023-12-28T15:18:50;97537.78;;;8.16;60.93
44001;BME280;29660;42.892;24.710;2023-12-28T15:24:13;97656.13;;;8.71;61.20
44001;BME280;29660;42.892;24.710;2023-12-28T15:29:35;97601.25;;;8.12;62.43
44001;BME280;29660;42.892;24.710;2023-12-28T15:34:57;97607.50;;;7.91;63.06
44001;BME280;29660;42.892;24.710;2023-12-28T15:40:21;97665.81;;;8.12;65.57
44001;BME280;29660;42.892;24.710;2023-12-28T15:45:43;97660.34;;;7.92;67.52
44001;BME280;29660;42.892;24.710;2023-12-28T15:51:08;97656.09;;;7.59;71.15
44001;BME280;29660;42.892;24.710;2023-12-28T15:56:30;97664.88;;;7.37;71.65
44001;BME280;29660;42.892;24.710;2023-12-28T16:01:52;97657.50;;;7.18;72.62
44001;BME280;29660;42.892;24.710;2023-12-28T16:07:14;97662.41;;;7.04;76.05
44001;BME280;29660;42.892;24.710;2023-12-28T16:12:36;97534.75;;;6.07;75.64
44001;BME280;29660;42.892;24.710;2023-12-28T16:17:59;97655.66;;;6.74;75.88
44001;BME280;29660;42.892;24.710;2023-12-28T16:23:22;97664.50;;;6.63;77.91
44001;BME280;29660;42.892;24.710;2023-12-28T16:28:44;97664.56;;;6.46;79.82
44001;BME280;29660;42.892;24.710;2023-12-28T16:34:07;97662.72;;;6.30;82.76
44001;BME280;29660;42.892;24.710;2023-12-28T16:39:31;97597.00;;;5.76;84.98
44001;BME280;29660;42.892;24.710;2023-12-28T16:44:53;97658.00;;;5.98;85.92
44001;BME280;29660;42.892;24.710;2023-12-28T16:50:15;97666.53;;;5.88;88.38
44001;BME280;29660;42.892;24.710;2023-12-28T16:55:38;97668.06;;;5.68;89.57
44001;BME280;29660;42.892;24.710;2023-12-28T17:01:00;97668.97;;;5.45;90.21
44001;BME280;29660;42.892;24.710;2023-12-28T17:06:22;97597.25;;;4.84;90.44
44001;BME280;29660;42.892;24.710;2023-12-28T17:11:45;97668.25;;;5.21;91.63
44001;BME280;29660;42.892;24.710;2023-12-28T17:17:13;97541.09;;;4.36;92.13
44001;BME280;29660;42.892;24.710;2023-12-28T17:22:45;97589.50;;;4.54;92.85
44001;BME280;29660;42.892;24.710;2023-12-28T17:28:20;97651.34;;;4.93;92.36
44001;BME280;29660;42.892;24.710;2023-12-28T17:33:45;97550.78;;;4.07;92.74
44001;BME280;29660;42.892;24.710;2023-12-28T17:39:07;97549.63;;;4.03;92.23
44001;BME280;29660;42.892;24.710;2023-12-28T17:44:31;97662.22;;;4.56;94.38
44001;BME280;29660;42.892;24.710;2023-12-28T17:49:58;97663.56;;;4.47;95.22
44001;BME280;29660;42.892;24.710;2023-12-28T17:55:20;97604.16;;;4.09;96.21
44001;BME280;29660;42.892;24.710;2023-12-28T18:00:43;97387.56;;;2.58;94.58
44001;BME280;29660;42.892;24.710;2023-12-28T18:06:15;97675.78;;;4.25;95.43
44001;BME280;29660;42.892;24.710;2023-12-28T18:11:38;97664.63;;;4.11;96.55
44001;BME280;29660;42.892;24.710;2023-12-28T18:17:00;97670.00;;;4.04;96.90
44001;BME280;29660;42.892;24.710;2023-12-28T18:22:22;97559.56;;;3.31;97.71
44001;BME280;29660;42.892;24.710;2023-12-28T18:27:44;97671.59;;;3.82;99.67
44001;BME280;29660;42.892;24.710;2023-12-28T18:33:06;97622.31;;;3.52;100.00
44001;BME280;29660;42.892;24.710;2023-12-28T18:38:28;97451.00;;;2.27;100.00
44001;BME280;29660;42.892;24.710;2023-12-28T18:43:51;97647.09;;;3.51;100.00
44001;BME280;29660;42.892;24.710;2023-12-28T18:49:13;97673.44;;;3.51;100.00
44001;BME280;29660;42.892;24.710;2023-12-28T18:54:35;97639.97;;;3.22;100.00
44001;BME280;29660;42.892;24.710;2023-12-28T18:59:57;97669.25;;;3.32;100.00
44001;BME280;29660;42.892;24.710;2023-12-28T19:05:19;97636.66;;;3.14;100.00
44001;BME280;29660;42.892;24.710;2023-12-28T19:10:42;97638.09;;;3.10;100.00
44001;BME280;29660;42.892;24.710;2023-12-28T19:16:04;97628.34;;;2.99;100.00
44001;BME280;29660;42.892;24.710;2023-12-28T19:21:26;97667.44;;;3.14;100.00
44001;BME280;29660;42.892;24.710;2023-12-28T19:26:49;97630.97;;;2.99;100.00
44001;BME280;29660;42.892;24.710;2023-12-28T19:32:12;97644.34;;;2.98;100.00
44001;BME280;29660;42.892;24.710;2023-12-28T19:37:34;97653.34;;;2.90;100.00
44001;BME280;29660;42.892;24.710;2023-12-28T19:42:56;97645.00;;;2.93;100.00
44001;BME280;29660;42.892;24.710;2023-12-28T19:48:19;97636.97;;;2.88;100.00
44001;BME280;29660;42.892;24.710;2023-12-28T19:53:41;97602.81;;;2.63;100.00
44001;BME280;29660;42.892;24.710;2023-12-28T19:59:03;97617.38;;;2.65;100.00
44001;BME280;29660;42.892;24.710;2023-12-28T20:04:25;97617.06;;;2.55;100.00
44001;BME280;29660;42.892;24.710;2023-12-28T20:09:47;97630.97;;;2.62;100.00
44001;BME280;29660;42.892;24.710;2023-12-28T20:15:10;97622.50;;;2.60;100.00
44001;BME280;29660;42.892;24.710;2023-12-28T20:20:32;97616.50;;;2.53;100.00
44001;BME280;29660;42.892;24.710;2023-12-28T20:25:55;97596.78;;;2.44;100.00
44001;BME280;29660;42.892;24.710;2023-12-28T20:31:17;97516.91;;;1.77;100.00
44001;BME280;29660;42.892;24.710;2023-12-28T20:36:40;97629.47;;;2.36;100.00
44001;BME280;29660;42.892;24.710;2023-12-28T20:42:03;97630.25;;;2.37;100.00
44001;BME280;29660;42.892;24.710;2023-12-28T20:47:25;97470.25;;;1.29;100.00
44001;BME280;29660;42.892;24.710;2023-12-28T20:52:48;97628.63;;;2.17;100.00
44001;BME280;29660;42.892;24.710;2023-12-28T20:58:10;97488.00;;;1.33;100.00
44001;BME280;29660;42.892;24.710;2023-12-28T21:03:32;97624.59;;;2.15;100.00
44001;BME280;29660;42.892;24.710;2023-12-28T21:08:55;97512.75;;;1.44;100.00
44001;BME280;29660;42.892;24.710;2023-12-28T21:14:17;97254.63;;;-0.32;100.00
44001;BME280;29660;42.892;24.710;2023-12-28T21:19:40;97608.94;;;1.77;100.00
44001;BME280;29660;42.892;24.710;2023-12-28T21:25:07;97579.28;;;1.69;100.00
44001;BME280;29660;42.892;24.710;2023-12-28T21:30:29;97574.47;;;1.66;100.00
44001;BME280;29660;42.892;24.710;2023-12-28T21:35:53;97620.59;;;1.87;100.00
44001;BME280;29660;42.892;24.710;2023-12-28T21:41:15;97615.59;;;1.79;100.00
44001;BME280;29660;42.892;24.710;2023-12-28T21:46:37;97610.38;;;1.72;100.00
44001;BME280;29660;42.892;24.710;2023-12-28T21:52:01;97565.19;;;1.39;100.00
44001;BME280;29660;42.892;24.710;2023-12-28T21:57:23;97611.53;;;1.58;100.00
44001;BME280;29660;42.892;24.710;2023-12-28T22:02:46;97491.06;;;0.73;100.00
44001;BME280;29660;42.892;24.710;2023-12-28T22:08:09;97616.28;;;1.43;100.00
44001;BME280;29660;42.892;24.710;2023-12-28T22:13:32;97598.91;;;1.42;100.00
44001;BME280;29660;42.892;24.710;2023-12-28T22:18:54;97612.09;;;1.35;100.00
44001;BME280;29660;42.892;24.710;2023-12-28T22:24:16;97596.88;;;1.44;100.00
44001;BME280;29660;42.892;24.710;2023-12-28T22:29:38;97581.72;;;1.46;100.00
44001;BME280;29660;42.892;24.710;2023-12-28T22:35:01;97588.97;;;1.44;100.00
44001;BME280;29660;42.892;24.710;2023-12-28T22:40:23;97441.53;;;0.52;100.00
44001;BME280;29660;42.892;24.710;2023-12-28T22:45:45;97519.50;;;1.08;100.00
44001;BME280;29660;42.892;24.710;2023-12-28T22:51:07;97552.56;;;1.22;100.00
44001;BME280;29660;42.892;24.710;2023-12-28T22:56:32;97570.69;;;1.31;100.00
44001;BME280;29660;42.892;24.710;2023-12-28T23:01:54;97575.19;;;1.23;100.00
44001;BME280;29660;42.892;24.710;2023-12-28T23:07:16;97570.16;;;1.22;100.00
44001;BME280;29660;42.892;24.710;2023-12-28T23:12:42;97575.03;;;1.18;100.00
44001;BME280;29660;42.892;24.710;2023-12-28T23:18:04;97570.72;;;1.24;100.00
44001;BME280;29660;42.892;24.710;2023-12-28T23:23:28;97415.84;;;0.22;100.00
44001;BME280;29660;42.892;24.710;2023-12-28T23:28:50;97574.00;;;1.19;100.00
44001;BME280;29660;42.892;24.710;2023-12-28T23:34:12;97553.09;;;1.06;100.00
44001;BME280;29660;42.892;24.710;2023-12-28T23:39:41;97546.69;;;0.95;100.00
44001;BME280;29660;42.892;24.710;2023-12-28T23:45:03;97480.22;;;0.63;100.00
44001;BME280;29660;42.892;24.710;2023-12-28T23:50:26;97510.59;;;0.84;100.00
44001;BME280;29660;42.892;24.710;2023-12-28T23:55:48;97462.16;;;0.48;100.00
